Airfield :
LOGIN :

Register | Disclaimer

   EN    FR    IT 

 










Legend :    VFR   Marginal VFR   IFR   Intensive IFR   Very Intensive IFR
Visi :
Ceiling :
>= 8 km
>= 3000ft
5 to 8 km
1000 to 3000 ft
1500m to 5 km
500 to 1000 ft
800 to 1500m
200 to 500 ft
< 800m
< 200 ft
Symbols :   Thunderstorms  Fog  Heavy snow  Heavy precipitations  Wind > 20 kt
SIGMETs :     Misc.  Thunderstorms  Icing  Turbulence  Mountain Waves  Volcanic Ashes






- Airport Elevation : 55 ft
- IATA code : DSA


EGCN - Robin Hood Doncaster Sheffield

CURRENT METAR :
  • 290550Z 23012KT CAVOK 14/11 Q1005

EXPIRED METARs :
  • 290520Z AUTO 23011KT 9000 FEW024/// SCT036/// 13/11 Q1005
  • 290450Z AUTO 22009KT 9999 FEW026/// SCT032/// 13/11 Q1005
  • 290420Z AUTO 21008KT 9000 NCD 12/11 Q1004
  • 290350Z AUTO 22009KT 9999 FEW040/// 12/11 Q1004
  • 290320Z AUTO 23010KT 9000 NCD 13/11 Q1004

TAF TAF EGCN
Valid from the 29 at 06:00 until the 30 at 06:00 UTC


290459Z 2906/3006 24012KT 9999 SCT025
TEMPO 2906/2917 26015G25KT
BECMG 2921/2924 VRB03KT
TEMPO 3003/3006 6000 RA
PROB30
TEMPO 3004/3006 4000 +RA BKN012



MET'MAP, your aeronautical weather chart ! - Copyright ORBIFLY December 2007 - Disclaimer

ORBIFLY MET'MAP TEAM :

Programming & Development : Alexandra Zaïnal
Concept & original design : Baudouin d'Aumeries
Assistance for programming : Marc-Olivier Méhu
Technical & hardware support : Manuel Goepfert

Contact : metmap@orbifly.com




SOURCES & CREDITS :

   NOAA